Time;durP1;ratioP1;P1;durP2;ratioP2;P2;SDS_P1;SDS_P2;PMS_P1;PMS_P2;Temp;Humidity;BMP_temperature;BMP_pressure;BME280_temperature;BME280_humidity;BME280_pressure;Samples;Min_cycle;Max_cycle;Signal;HPM_P1;HPM_P2
2021/04/29 00:02:17;;;;;;;;;;;15.10;55.70;;;;;;4288415;33;29827;-74
2021/04/29 00:04:51;;;;;;;;;;;15.10;55.80;;;;;;4290569;33;20405;-74
2021/04/29 00:07:21;;;;;;;;;;;15.10;55.90;;;;;;4289558;33;39706;-74
2021/04/29 00:10:01;;;;;;;;;;;15.00;56.10;;;;;;4277597;33;19998;-74
2021/04/29 00:12:31;;;;;;;;;;;14.90;56.30;;;;;;4288376;33;44763;-74
2021/04/29 00:15:00;;;;;;;;;;;14.80;56.50;;;;;;4289919;33;20016;-74
2021/04/29 00:17:31;;;;;;;;;;;14.70;56.70;;;;;;4289234;33;20020;-74
2021/04/29 00:20:03;;;;;;;;;;;14.70;57.00;;;;;;4290771;33;20029;-74
2021/04/29 00:22:36;;;;;;;;;;;14.60;57.40;;;;;;4289343;33;20029;-74
2021/04/29 00:25:14;;;;;;;;;;;14.60;57.50;;;;;;4290346;33;20054;-74
2021/04/29 00:27:46;;;;;;;;;;;14.50;57.60;;;;;;4290284;33;20074;-74
2021/04/29 00:30:19;;;;;;;;;;;14.50;57.70;;;;;;4290330;33;20116;-74
2021/04/29 00:32:48;;;;;;;;;;;14.50;57.90;;;;;;4288720;33;43660;-74
2021/04/29 00:35:18;;;;;;;;;;;14.40;58.10;;;;;;4288422;33;44010;-74
2021/04/29 00:37:48;;;;;;;;;;;14.40;58.40;;;;;;4289092;33;20007;-74
2021/04/29 00:40:20;;;;;;;;;;;14.30;58.50;;;;;;4288174;33;32113;-74
2021/04/29 00:42:50;;;;;;;;;;;14.30;58.90;;;;;;4288162;33;27957;-74
2021/04/29 00:45:22;;;;;;;;;;;14.20;58.80;;;;;;4288667;33;20117;-74
2021/04/29 00:47:51;;;;;;;;;;;14.30;58.80;;;;;;4288780;33;36899;-74
2021/04/29 00:50:22;;;;;;;;;;;14.30;59.10;;;;;;4289845;33;20003;-75
2021/04/29 00:52:57;;;;;;;;;;;14.30;59.00;;;;;;4289728;33;20347;-75
2021/04/29 00:55:29;;;;;;;;;;;14.30;59.10;;;;;;4288387;33;28904;-74
2021/04/29 00:57:59;;;;;;;;;;;14.20;59.10;;;;;;4288755;33;33368;-75
2021/04/29 01:00:34;;;;;;;;;;;14.20;59.00;;;;;;4288701;33;44638;-74
2021/04/29 01:03:17;;;;;;;;;;;14.20;59.00;;;;;;4276840;33;20207;-75
2021/04/29 01:05:55;;;;;;;;;;;14.20;59.10;;;;;;4275028;33;44188;-75
2021/04/29 01:08:30;;;;;;;;;;;14.20;59.20;;;;;;4289658;33;20021;-75
2021/04/29 01:11:12;;;;;;;;;;;14.20;59.30;;;;;;4289700;33;20011;-75
2021/04/29 01:13:50;;;;;;;;;;;14.20;59.20;;;;;;4288479;33;20055;-74
2021/04/29 01:16:23;;;;;;;;;;;14.20;59.30;;;;;;4276724;33;20118;-74
2021/04/29 01:18:56;;;;;;;;;;;14.20;59.20;;;;;;4287938;33;20018;-74
2021/04/29 01:21:29;;;;;;;;;;;14.20;59.40;;;;;;4288532;33;20019;-74
2021/04/29 01:23:59;;;;;;;;;;;14.20;59.40;;;;;;4287190;33;44867;-74
2021/04/29 01:26:46;;;;;;;;;;;14.10;59.60;;;;;;4276291;33;20046;-74
2021/04/29 01:29:21;;;;;;;;;;;14.10;59.90;;;;;;4289139;33;20002;-74
2021/04/29 01:31:53;;;;;;;;;;;14.00;59.90;;;;;;4289531;33;20059;-74
2021/04/29 01:34:37;;;;;;;;;;;14.00;60.00;;;;;;4288231;33;20037;-74
2021/04/29 01:37:09;;;;;;;;;;;13.90;60.40;;;;;;4274700;33;44660;-74
2021/04/29 01:39:37;;;;;;;;;;;13.80;60.50;;;;;;4288021;33;42995;-74
2021/04/29 01:42:07;;;;;;;;;;;13.80;60.90;;;;;;4287955;33;20013;-74
2021/04/29 01:44:39;;;;;;;;;;;13.80;61.10;;;;;;4288272;33;37686;-74
2021/04/29 01:47:09;;;;;;;;;;;13.80;61.10;;;;;;4286832;33;41426;-74
2021/04/29 01:49:39;;;;;;;;;;;13.80;61.80;;;;;;4287655;33;20011;-74
2021/04/29 01:52:09;;;;;;;;;;;13.80;61.00;;;;;;4274807;33;45154;-74
2021/04/29 01:54:43;;;;;;;;;;;13.80;61.00;;;;;;4286292;33;45125;-74
2021/04/29 01:57:12;;;;;;;;;;;13.80;61.00;;;;;;4287082;33;33652;-74
2021/04/29 01:59:48;;;;;;;;;;;13.80;60.90;;;;;;4289069;33;20025;-74
2021/04/29 02:02:18;;;;;;;;;;;13.80;61.20;;;;;;4287634;33;20026;-74
2021/04/29 02:04:50;;;;;;;;;;;13.90;61.30;;;;;;4288085;33;28645;-74
2021/04/29 02:07:23;;;;;;;;;;;13.90;61.10;;;;;;4287587;33;31825;-74
2021/04/29 02:09:54;;;;;;;;;;;13.90;61.00;;;;;;4287692;33;36613;-74
2021/04/29 02:12:26;;;;;;;;;;;13.90;61.10;;;;;;4286573;33;44193;-74
2021/04/29 02:15:00;;;;;;;;;;;13.90;60.90;;;;;;4287541;33;19999;-74
2021/04/29 02:17:38;;;;;;;;;;;13.90;61.00;;;;;;4287518;33;43429;-74
2021/04/29 02:20:11;;;;;;;;;;;13.90;61.00;;;;;;4275801;33;20452;-74
2021/04/29 02:22:46;;;;;;;;;;;13.90;61.10;;;;;;4287744;33;20029;-74
2021/04/29 02:25:22;;;;;;;;;;;14.00;60.90;;;;;;4275662;33;20347;-74
2021/04/29 02:27:55;;;;;;;;;;;13.90;61.00;;;;;;4288791;33;20066;-74
2021/04/29 02:30:30;;;;;;;;;;;13.90;61.20;;;;;;4288861;33;20011;-74
2021/04/29 02:33:03;;;;;;;;;;;13.90;61.00;;;;;;4287423;33;20121;-74
2021/04/29 02:35:44;;;;;;;;;;;13.90;61.20;;;;;;4287321;33;20020;-74
2021/04/29 02:38:16;;;;;;;;;;;13.80;61.50;;;;;;4287566;33;20010;-74
2021/04/29 02:40:52;;;;;;;;;;;13.70;61.60;;;;;;4287690;33;20006;-74
2021/04/29 02:43:25;;;;;;;;;;;13.70;61.70;;;;;;4286793;33;20009;-74
2021/04/29 02:45:57;;;;;;;;;;;13.60;61.80;;;;;;4275489;33;20066;-74
2021/04/29 02:48:27;;;;;;;;;;;13.50;62.20;;;;;;4287680;33;20401;-74
2021/04/29 02:51:02;;;;;;;;;;;13.50;62.80;;;;;;4288466;33;20022;-74
2021/04/29 02:53:36;;;;;;;;;;;13.50;62.80;;;;;;4287593;33;34978;-74
2021/04/29 02:56:06;;;;;;;;;;;13.50;62.60;;;;;;4287882;33;20014;-74
2021/04/29 02:58:47;;;;;;;;;;;13.50;62.70;;;;;;4288392;33;20094;-74
2021/04/29 03:01:18;;;;;;;;;;;13.50;63.10;;;;;;4287199;33;37182;-74
2021/04/29 03:03:48;;;;;;;;;;;13.40;63.00;;;;;;4286677;33;20015;-74
2021/04/29 03:06:21;;;;;;;;;;;13.40;63.30;;;;;;4287354;33;36882;-74
2021/04/29 03:08:50;;;;;;;;;;;13.40;63.20;;;;;;4285584;33;39302;-74
2021/04/29 03:11:23;;;;;;;;;;;13.40;63.20;;;;;;4285654;33;39070;-74
2021/04/29 03:13:53;;;;;;;;;;;13.30;63.30;;;;;;4286209;33;42567;-74
2021/04/29 03:16:25;;;;;;;;;;;13.30;63.20;;;;;;4288087;33;20021;-74
2021/04/29 03:19:03;;;;;;;;;;;13.30;63.70;;;;;;4289036;33;20006;-74
2021/04/29 03:21:33;;;;;;;;;;;13.30;63.70;;;;;;4277341;33;29972;-74
2021/04/29 03:24:07;;;;;;;;;;;13.30;63.60;;;;;;4276607;33;46838;-74
2021/04/29 03:26:37;;;;;;;;;;;13.20;63.70;;;;;;4278026;33;20384;-74
2021/04/29 03:29:12;;;;;;;;;;;13.20;63.80;;;;;;4288486;33;46890;-74
2021/04/29 03:31:39;;;;;;;;;;;13.20;64.00;;;;;;4290601;33;20010;-74
2021/04/29 03:34:12;;;;;;;;;;;13.10;63.90;;;;;;4277531;33;20070;-74
2021/04/29 03:36:44;;;;;;;;;;;13.10;64.00;;;;;;4291009;33;20021;-74
2021/04/29 03:39:16;;;;;;;;;;;13.10;64.00;;;;;;4276869;33;36815;-74
2021/04/29 03:41:46;;;;;;;;;;;13.10;64.30;;;;;;4289100;33;28266;-74
2021/04/29 03:44:13;;;;;;;;;;;13.10;65.10;;;;;;4290090;33;30346;-74
2021/04/29 03:46:45;;;;;;;;;;;13.00;64.70;;;;;;4288430;33;37816;-74
2021/04/29 03:49:15;;;;;;;;;;;13.10;64.80;;;;;;4288657;33;38718;-74
2021/04/29 03:51:47;;;;;;;;;;;13.10;64.60;;;;;;4288430;33;41509;-74
2021/04/29 03:54:16;;;;;;;;;;;13.10;64.60;;;;;;4288328;33;41488;-74
2021/04/29 03:56:48;;;;;;;;;;;13.10;64.40;;;;;;4290258;33;20069;-74
2021/04/29 03:59:18;;;;;;;;;;;13.10;64.50;;;;;;4290133;33;20006;-74
2021/04/29 04:01:48;;;;;;;;;;;13.00;64.60;;;;;;4291648;33;20012;-74
2021/04/29 04:04:20;;;;;;;;;;;13.00;64.50;;;;;;4291967;33;20051;-74
2021/04/29 04:06:53;;;;;;;;;;;13.00;64.80;;;;;;4290631;33;40143;-74
2021/04/29 04:09:20;;;;;;;;;;;12.90;65.00;;;;;;4290863;33;30714;-74
2021/04/29 04:11:50;;;;;;;;;;;13.00;65.10;;;;;;4290346;33;41148;-74
2021/04/29 04:14:26;;;;;;;;;;;13.00;65.00;;;;;;4292592;33;20049;-74
2021/04/29 04:16:53;;;;;;;;;;;13.00;65.00;;;;;;4303959;33;27140;-74
2021/04/29 04:19:32;;;;;;;;;;;13.00;64.80;;;;;;4304202;33;20407;-74
2021/04/29 04:21:59;;;;;;;;;;;13.00;64.80;;;;;;4303557;33;44319;-74
2021/04/29 04:24:30;;;;;;;;;;;13.00;65.10;;;;;;4289971;33;45100;-74
2021/04/29 04:27:02;;;;;;;;;;;12.90;65.10;;;;;;4279505;33;20083;-74
2021/04/29 04:29:38;;;;;;;;;;;12.90;65.40;;;;;;4303239;33;44260;-74
2021/04/29 04:32:05;;;;;;;;;;;12.90;65.70;;;;;;4289881;33;46383;-74
2021/04/29 04:34:34;;;;;;;;;;;12.90;65.60;;;;;;4303290;33;45060;-74
2021/04/29 04:37:01;;;;;;;;;;;12.80;65.60;;;;;;4279031;33;20367;-74
2021/04/29 04:39:33;;;;;;;;;;;12.80;65.80;;;;;;4302976;33;43693;-74
2021/04/29 04:42:03;;;;;;;;;;;12.70;65.90;;;;;;4290464;33;40472;-74
2021/04/29 04:44:32;;;;;;;;;;;12.70;66.30;;;;;;4303347;33;30812;-74
2021/04/29 04:46:59;;;;;;;;;;;12.70;66.30;;;;;;4289549;33;44859;-74
2021/04/29 04:49:29;;;;;;;;;;;12.60;66.40;;;;;;4289531;33;44580;-75
2021/04/29 04:51:59;;;;;;;;;;;12.50;67.10;;;;;;4278037;33;37296;-74
2021/04/29 04:54:27;;;;;;;;;;;12.50;67.10;;;;;;4289812;33;44999;-74
2021/04/29 04:56:59;;;;;;;;;;;12.40;67.30;;;;;;4303134;33;43662;-74
2021/04/29 04:59:29;;;;;;;;;;;12.40;67.50;;;;;;4303234;33;39737;-74
2021/04/29 05:02:00;;;;;;;;;;;12.40;67.80;;;;;;4303102;33;27968;-74
2021/04/29 05:04:30;;;;;;;;;;;12.30;68.00;;;;;;4277973;33;40385;-74
2021/04/29 05:07:08;;;;;;;;;;;12.30;68.00;;;;;;4304284;33;20466;-74
2021/04/29 05:09:37;;;;;;;;;;;12.30;68.40;;;;;;4290179;33;29749;-74
2021/04/29 05:12:09;;;;;;;;;;;12.30;68.70;;;;;;4290620;33;19998;-74
2021/04/29 05:14:39;;;;;;;;;;;12.30;68.60;;;;;;4290952;33;19998;-74
2021/04/29 05:17:11;;;;;;;;;;;12.30;68.50;;;;;;4290959;33;19998;-74
2021/04/29 05:19:44;;;;;;;;;;;12.30;68.90;;;;;;4277856;33;37373;-74
2021/04/29 05:22:16;;;;;;;;;;;12.30;69.00;;;;;;4289946;33;42756;-74
2021/04/29 05:24:48;;;;;;;;;;;12.40;68.70;;;;;;4303586;33;20025;-74
2021/04/29 05:27:17;;;;;;;;;;;12.30;69.00;;;;;;4290464;33;19999;-74
2021/04/29 05:29:50;;;;;;;;;;;12.40;69.10;;;;;;4291029;33;20020;-74
2021/04/29 05:32:21;;;;;;;;;;;12.40;68.90;;;;;;4303887;33;20040;-74
2021/04/29 05:34:54;;;;;;;;;;;12.40;68.80;;;;;;4290605;33;19998;-74
2021/04/29 05:37:26;;;;;;;;;;;12.40;69.00;;;;;;4290654;33;20021;-74
2021/04/29 05:39:59;;;;;;;;;;;12.30;69.00;;;;;;4303035;33;30578;-74
2021/04/29 05:42:31;;;;;;;;;;;12.30;69.20;;;;;;4301938;33;41509;-74
2021/04/29 05:45:01;;;;;;;;;;;12.30;69.40;;;;;;4302451;33;41258;-74
2021/04/29 05:47:33;;;;;;;;;;;12.30;69.50;;;;;;4290046;33;20111;-74
2021/04/29 05:50:06;;;;;;;;;;;12.30;69.50;;;;;;4288752;33;43680;-74
2021/04/29 05:52:36;;;;;;;;;;;12.30;69.50;;;;;;4303580;33;20002;-74
2021/04/29 05:55:08;;;;;;;;;;;12.40;69.70;;;;;;4303015;33;20077;-74
2021/04/29 05:57:38;;;;;;;;;;;12.40;69.60;;;;;;4289354;33;39236;-74
2021/04/29 06:00:10;;;;;;;;;;;12.40;69.40;;;;;;4278561;33;20123;-74
2021/04/29 06:02:42;;;;;;;;;;;12.40;69.70;;;;;;4289433;33;20026;-74
2021/04/29 06:05:12;;;;;;;;;;;12.40;69.90;;;;;;4289951;33;20430;-74
2021/04/29 06:07:44;;;;;;;;;;;12.40;69.70;;;;;;4290131;33;20024;-75
2021/04/29 06:10:16;;;;;;;;;;;12.40;69.60;;;;;;4301908;33;43484;-75
2021/04/29 06:12:45;;;;;;;;;;;12.30;69.70;;;;;;4289001;33;44712;-75
2021/04/29 06:15:15;;;;;;;;;;;12.30;70.00;;;;;;4276643;33;38882;-74
2021/04/29 06:17:45;;;;;;;;;;;12.30;70.40;;;;;;4290366;33;20014;-74
2021/04/29 06:20:15;;;;;;;;;;;12.20;70.80;;;;;;4277961;33;20057;-74
2021/04/29 06:22:48;;;;;;;;;;;12.20;70.90;;;;;;4289739;33;20380;-74
2021/04/29 06:25:20;;;;;;;;;;;12.20;70.90;;;;;;4301886;33;43668;-75
2021/04/29 06:27:55;;;;;;;;;;;12.10;70.90;;;;;;4302201;33;44329;-75
2021/04/29 06:30:22;;;;;;;;;;;12.10;71.50;;;;;;4301983;33;35361;-75
2021/04/29 06:32:52;;;;;;;;;;;12.00;71.40;;;;;;4301496;33;36230;-75
2021/04/29 06:35:24;;;;;;;;;;;12.00;71.70;;;;;;4302500;33;20058;-75
2021/04/29 06:37:59;;;;;;;;;;;11.90;71.80;;;;;;4302153;33;36419;-75
2021/04/29 06:40:32;;;;;;;;;;;11.90;72.50;;;;;;4289774;33;20057;-75
2021/04/29 06:43:02;;;;;;;;;;;11.90;72.10;;;;;;4288344;33;45953;-75
2021/04/29 06:45:34;;;;;;;;;;;11.90;72.30;;;;;;4301726;33;41332;-75
2021/04/29 06:48:04;;;;;;;;;;;11.80;72.30;;;;;;4289076;33;31505;-75
2021/04/29 06:50:39;;;;;;;;;;;11.80;72.40;;;;;;4302375;33;20049;-75
2021/04/29 06:53:14;;;;;;;;;;;11.80;72.30;;;;;;4288303;33;42905;-75
2021/04/29 06:55:40;;;;;;;;;;;11.80;72.50;;;;;;4288342;33;43614;-75
2021/04/29 06:58:09;;;;;;;;;;;11.90;73.70;;;;;;4301223;33;38885;-75
2021/04/29 07:00:39;;;;;;;;;;;11.90;72.80;;;;;;4301064;33;43597;-75
2021/04/29 07:03:11;;;;;;;;;;;11.90;72.80;;;;;;4300925;33;42674;-75
2021/04/29 07:05:40;;;;;;;;;;;11.90;72.80;;;;;;4288277;33;43648;-75
2021/04/29 07:08:12;;;;;;;;;;;11.90;73.10;;;;;;4289427;33;20010;-75
2021/04/29 07:10:42;;;;;;;;;;;11.90;72.80;;;;;;4302613;33;20018;-75
2021/04/29 07:13:14;;;;;;;;;;;11.90;73.10;;;;;;4276617;33;30166;-75
2021/04/29 07:15:46;;;;;;;;;;;11.90;72.90;;;;;;4288271;33;45535;-75
2021/04/29 07:18:15;;;;;;;;;;;11.90;72.80;;;;;;4276466;33;33636;-75
2021/04/29 07:20:48;;;;;;;;;;;12.00;72.70;;;;;;4289415;33;20021;-75
2021/04/29 07:23:20;;;;;;;;;;;12.00;72.80;;;;;;4289532;33;20003;-75
2021/04/29 07:25:52;;;;;;;;;;;12.00;72.80;;;;;;4277619;33;20061;-75
2021/04/29 07:28:23;;;;;;;;;;;12.00;72.90;;;;;;4288392;33;39996;-75
2021/04/29 07:30:53;;;;;;;;;;;12.00;72.90;;;;;;4288216;33;43831;-75
2021/04/29 07:33:25;;;;;;;;;;;12.00;73.10;;;;;;4302028;33;20884;-75
2021/04/29 07:35:55;;;;;;;;;;;11.90;72.80;;;;;;4288735;33;33679;-75
2021/04/29 07:38:25;;;;;;;;;;;12.00;73.30;;;;;;4287911;33;43446;-76
2021/04/29 07:40:54;;;;;;;;;;;11.90;73.80;;;;;;4289408;33;20003;-75
2021/04/29 07:43:27;;;;;;;;;;;11.80;73.70;;;;;;4289493;33;20402;-75
2021/04/29 07:45:59;;;;;;;;;;;11.90;73.90;;;;;;4288737;33;35258;-75
2021/04/29 07:48:30;;;;;;;;;;;11.80;73.90;;;;;;4275948;33;46825;-76
2021/04/29 07:51:02;;;;;;;;;;;11.90;74.70;;;;;;4288068;33;42979;-75
2021/04/29 07:53:31;;;;;;;;;;;11.90;74.50;;;;;;4288196;33;44695;-75
2021/04/29 07:56:01;;;;;;;;;;;11.90;74.60;;;;;;4276309;33;32475;-75
2021/04/29 07:58:30;;;;;;;;;;;11.90;74.40;;;;;;4288740;33;44191;-75
2021/04/29 08:00:57;;;;;;;;;;;11.90;74.30;;;;;;4287792;33;40667;-75
2021/04/29 08:03:27;;;;;;;;;;;11.90;74.30;;;;;;4287514;33;41535;-75
2021/04/29 08:05:55;;;;;;;;;;;11.90;74.10;;;;;;4303179;33;25765;-75
2021/04/29 08:08:27;;;;;;;;;;;11.90;74.20;;;;;;4303957;33;40981;-75
2021/04/29 08:10:57;;;;;;;;;;;11.90;74.20;;;;;;4278968;33;32958;-75
2021/04/29 08:13:32;;;;;;;;;;;11.80;74.30;;;;;;4291680;33;20046;-75
2021/04/29 08:16:01;;;;;;;;;;;11.80;74.20;;;;;;4303661;33;43643;-75
2021/04/29 08:18:31;;;;;;;;;;;11.90;73.90;;;;;;4304848;33;20020;-76
2021/04/29 08:21:04;;;;;;;;;;;11.90;73.80;;;;;;4304310;33;20546;-75
2021/04/29 08:23:38;;;;;;;;;;;11.90;73.70;;;;;;4279569;33;20372;-76
2021/04/29 08:26:11;;;;;;;;;;;12.00;74.00;;;;;;4291677;33;20121;-75
2021/04/29 08:28:40;;;;;;;;;;;12.00;73.90;;;;;;4290293;33;41854;-75
2021/04/29 08:31:10;;;;;;;;;;;11.90;73.80;;;;;;4303566;33;40927;-75
2021/04/29 08:33:42;;;;;;;;;;;11.90;74.00;;;;;;4304297;33;20385;-75
2021/04/29 08:36:13;;;;;;;;;;;12.00;74.10;;;;;;4291664;33;20112;-76
2021/04/29 08:38:43;;;;;;;;;;;12.00;73.80;;;;;;4303625;33;32521;-76
2021/04/29 08:41:20;;;;;;;;;;;12.00;74.10;;;;;;4304486;33;20010;-76
2021/04/29 08:43:47;;;;;;;;;;;12.00;73.70;;;;;;4290339;33;43706;-75
2021/04/29 08:46:20;;;;;;;;;;;12.00;73.50;;;;;;4304086;33;20002;-75
2021/04/29 08:48:57;;;;;;;;;;;12.10;73.60;;;;;;4279360;33;20026;-75
2021/04/29 08:51:34;;;;;;;;;;;12.10;73.40;;;;;;4291111;33;20012;-75
2021/04/29 08:54:04;;;;;;;;;;;12.00;73.30;;;;;;4304069;33;26553;-76
2021/04/29 08:56:30;;;;;;;;;;;12.00;73.30;;;;;;4303109;33;43219;-76
2021/04/29 08:58:58;;;;;;;;;;;12.00;73.20;;;;;;4278809;33;20348;-75
2021/04/29 09:01:38;;;;;;;;;;;12.00;73.40;;;;;;4291068;33;20073;-76
2021/04/29 09:04:14;;;;;;;;;;;12.00;73.40;;;;;;4278171;33;38762;-76
2021/04/29 09:06:45;;;;;;;;;;;12.00;73.40;;;;;;4291135;33;20010;-76
2021/04/29 09:09:20;;;;;;;;;;;12.00;73.50;;;;;;4290796;33;20038;-75
2021/04/29 09:11:54;;;;;;;;;;;12.00;73.50;;;;;;4290027;33;31375;-75
2021/04/29 09:14:38;;;;;;;;;;;12.00;73.20;;;;;;4292309;33;23498;-75
2021/04/29 09:17:08;;;;;;;;;;;11.90;73.40;;;;;;4302982;33;42385;-75
2021/04/29 09:19:47;;;;;;;;;;;11.90;74.10;;;;;;4290744;33;20021;-74
2021/04/29 09:22:19;;;;;;;;;;;11.80;74.80;;;;;;4278794;33;20071;-74
2021/04/29 09:24:52;;;;;;;;;;;11.70;75.00;;;;;;4302686;33;43303;-74
2021/04/29 09:27:25;;;;;;;;;;;11.70;74.90;;;;;;4291210;33;20022;-75
2021/04/29 09:29:55;;;;;;;;;;;11.70;75.00;;;;;;4303659;33;20022;-75
2021/04/29 09:32:33;;;;;;;;;;;11.60;74.70;;;;;;4278528;33;21506;-75
2021/04/29 09:35:20;;;;;;;;;;;11.60;75.00;;;;;;4290833;33;20507;-75
2021/04/29 09:37:59;;;;;;;;;;;11.60;75.00;;;;;;4289597;33;43147;-75
2021/04/29 09:40:38;;;;;;;;;;;11.70;75.30;;;;;;4302498;33;36005;-76
2021/04/29 09:43:10;;;;;;;;;;;11.60;75.40;;;;;;4289435;33;44626;-75
2021/04/29 09:45:43;;;;;;;;;;;11.60;75.40;;;;;;4303761;33;20062;-75
2021/04/29 09:48:22;;;;;;;;;;;11.50;75.60;;;;;;4278702;33;20004;-75
2021/04/29 09:50:59;;;;;;;;;;;11.50;75.60;;;;;;4290238;33;20014;-75
2021/04/29 09:53:48;;;;;;;;;;;11.40;75.60;;;;;;4303602;33;20018;-75
2021/04/29 09:56:20;;;;;;;;;;;11.40;75.60;;;;;;4289969;33;27901;-75
2021/04/29 09:58:55;;;;;;;;;;;11.40;75.50;;;;;;4289551;33;33865;-75
2021/04/29 10:01:25;;;;;;;;;;;11.40;75.90;;;;;;4290315;33;20359;-75
2021/04/29 10:03:57;;;;;;;;;;;11.40;76.10;;;;;;4278297;33;20047;-75
2021/04/29 10:06:29;;;;;;;;;;;11.40;75.90;;;;;;4303488;33;20070;-75
2021/04/29 10:09:05;;;;;;;;;;;11.40;75.80;;;;;;4289164;33;40472;-75
2021/04/29 10:11:52;;;;;;;;;;;11.40;75.80;;;;;;4276684;33;43258;-75
2021/04/29 10:14:23;;;;;;;;;;;11.40;75.60;;;;;;4290594;33;20032;-75
2021/04/29 10:16:50;;;;;;;;;;;11.40;75.50;;;;;;4288371;33;43899;-75
2021/04/29 10:19:19;;;;;;;;;;;11.40;75.20;;;;;;4288747;33;45081;-75
2021/04/29 10:21:48;;;;;;;;;;;11.40;74.90;;;;;;4288992;33;36995;-75
2021/04/29 10:24:18;;;;;;;;;;;11.50;74.80;;;;;;4289857;33;20049;-75
2021/04/29 10:26:58;;;;;;;;;;;11.40;74.70;;;;;;4277873;33;20054;-75
2021/04/29 10:29:31;;;;;;;;;;;11.40;74.80;;;;;;4289820;33;20006;-75
2021/04/29 10:32:08;;;;;;;;;;;11.40;74.90;;;;;;4290176;33;20009;-75
2021/04/29 10:34:44;;;;;;;;;;;11.40;74.70;;;;;;4302884;33;20011;-75
2021/04/29 10:37:20;;;;;;;;;;;11.40;74.60;;;;;;4289286;33;20001;-76
2021/04/29 10:39:52;;;;;;;;;;;11.40;74.60;;;;;;4302559;33;20028;-76
2021/04/29 10:42:27;;;;;;;;;;;11.30;74.50;;;;;;4302909;33;20077;-76
2021/04/29 10:45:05;;;;;;;;;;;11.40;74.40;;;;;;4277916;33;20344;-76
2021/04/29 10:47:41;;;;;;;;;;;11.40;74.10;;;;;;4290011;33;20370;-76
2021/04/29 10:50:15;;;;;;;;;;;11.40;74.10;;;;;;4289537;33;20463;-76
2021/04/29 10:53:02;;;;;;;;;;;11.30;74.00;;;;;;4277404;33;20077;-76
2021/04/29 10:55:37;;;;;;;;;;;11.30;74.00;;;;;;4288868;33;36399;-76
2021/04/29 10:58:23;;;;;;;;;;;11.30;73.90;;;;;;4302953;33;20404;-76
2021/04/29 11:00:59;;;;;;;;;;;11.30;73.80;;;;;;4301774;33;39724;-76
2021/04/29 11:03:36;;;;;;;;;;;11.30;73.60;;;;;;4288272;33;43599;-77
2021/04/29 11:06:08;;;;;;;;;;;11.40;73.40;;;;;;4289682;33;20009;-77
2021/04/29 11:08:51;;;;;;;;;;;11.40;73.20;;;;;;4277896;33;19994;-76
2021/04/29 11:11:28;;;;;;;;;;;11.30;73.10;;;;;;4277787;33;20085;-76
2021/04/29 11:14:09;;;;;;;;;;;11.30;73.00;;;;;;4303216;33;20018;-76
2021/04/29 11:16:53;;;;;;;;;;;11.20;73.00;;;;;;4290000;33;20010;-76
2021/04/29 11:19:38;;;;;;;;;;;11.20;73.10;;;;;;4289576;33;20013;-76
2021/04/29 11:22:12;;;;;;;;;;;11.20;73.10;;;;;;4303122;33;20010;-76
2021/04/29 11:24:48;;;;;;;;;;;11.20;73.00;;;;;;4291522;33;20048;-77
2021/04/29 11:27:29;;;;;;;;;;;11.10;73.00;;;;;;4309873;33;20359;-77
2021/04/29 11:30:08;;;;;;;;;;;11.20;72.90;;;;;;4306418;33;20050;-78
2021/04/29 11:32:51;;;;;;;;;;;11.20;72.80;;;;;;4306710;33;20029;-76
2021/04/29 11:35:23;;;;;;;;;;;11.20;72.70;;;;;;4305569;33;20034;-78
2021/04/29 11:37:56;;;;;;;;;;;11.10;72.80;;;;;;4292993;33;20006;-77
2021/04/29 11:40:32;;;;;;;;;;;11.00;73.10;;;;;;4293334;33;20018;-77
2021/04/29 11:43:03;;;;;;;;;;;10.90;73.20;;;;;;4295900;33;35095;-77
2021/04/29 11:45:39;;;;;;;;;;;10.90;73.30;;;;;;4308879;33;20046;-77
2021/04/29 11:48:11;;;;;;;;;;;10.90;73.10;;;;;;4310371;33;36289;-77
2021/04/29 11:50:41;;;;;;;;;;;11.00;73.00;;;;;;4284900;33;20017;-77
2021/04/29 11:53:18;;;;;;;;;;;11.00;72.90;;;;;;4298927;33;20407;-77
2021/04/29 11:55:56;;;;;;;;;;;11.00;72.90;;;;;;4298919;33;20010;-77
2021/04/29 11:58:26;;;;;;;;;;;11.00;73.00;;;;;;4310705;33;32269;-77
2021/04/29 12:00:56;;;;;;;;;;;11.00;73.00;;;;;;4283218;33;20033;-77
2021/04/29 12:03:27;;;;;;;;;;;11.00;73.10;;;;;;4308271;33;20408;-77
2021/04/29 12:06:02;;;;;;;;;;;11.00;73.20;;;;;;4298101;33;31386;-77
2021/04/29 12:08:33;;;;;;;;;;;10.90;73.30;;;;;;4310283;33;20087;-77
2021/04/29 12:11:06;;;;;;;;;;;10.80;73.50;;;;;;4286342;33;45152;-77
2021/04/29 12:13:37;;;;;;;;;;;10.70;73.70;;;;;;4298909;33;20018;-77
2021/04/29 12:16:13;;;;;;;;;;;10.70;74.00;;;;;;4286895;33;20002;-76
2021/04/29 12:18:48;;;;;;;;;;;10.70;74.10;;;;;;4315280;33;20024;-77
2021/04/29 12:21:27;;;;;;;;;;;10.70;74.00;;;;;;4314315;33;20042;-77
2021/04/29 12:24:02;;;;;;;;;;;10.70;74.00;;;;;;4288822;33;37785;-77
2021/04/29 12:26:35;;;;;;;;;;;10.70;74.20;;;;;;4313814;33;29821;-77
2021/04/29 12:29:07;;;;;;;;;;;10.60;74.20;;;;;;4312515;33;20038;-77
2021/04/29 12:31:53;;;;;;;;;;;10.60;74.10;;;;;;4301883;33;20322;-77
2021/04/29 12:34:25;;;;;;;;;;;10.70;74.20;;;;;;4313982;33;20423;-77
2021/04/29 12:37:01;;;;;;;;;;;10.70;74.00;;;;;;4299785;33;40175;-76
2021/04/29 12:39:49;;;;;;;;;;;10.70;73.90;;;;;;4316494;33;20069;-77
2021/04/29 12:42:21;;;;;;;;;;;10.80;73.80;;;;;;4317674;33;20010;-77
2021/04/29 12:45:00;;;;;;;;;;;10.80;73.70;;;;;;4292041;33;45551;-78
2021/04/29 12:47:31;;;;;;;;;;;10.70;73.70;;;;;;4298578;33;44235;-77
2021/04/29 12:50:09;;;;;;;;;;;10.70;73.70;;;;;;4309915;33;20020;-77
2021/04/29 12:52:52;;;;;;;;;;;10.80;73.60;;;;;;4300129;33;20069;-78
2021/04/29 12:55:22;;;;;;;;;;;10.80;73.60;;;;;;4310298;33;20065;-76
2021/04/29 12:57:54;;;;;;;;;;;10.70;73.70;;;;;;4310170;33;38828;-77
2021/04/29 13:00:26;;;;;;;;;;;10.70;73.70;;;;;;4307531;33;37392;-77
2021/04/29 13:03:05;;;;;;;;;;;10.70;73.70;;;;;;4310029;33;20051;-77
2021/04/29 13:05:32;;;;;;;;;;;10.70;73.70;;;;;;4295090;33;32449;-76
2021/04/29 13:08:04;;;;;;;;;;;10.70;73.70;;;;;;4308728;33;20495;-78
2021/04/29 13:10:44;;;;;;;;;;;10.70;73.50;;;;;;4294985;33;34714;-78
2021/04/29 13:13:16;;;;;;;;;;;10.70;73.60;;;;;;4306659;33;43645;-77
2021/04/29 13:15:51;;;;;;;;;;;10.70;73.60;;;;;;4307402;33;20010;-78
2021/04/29 13:18:30;;;;;;;;;;;10.80;73.50;;;;;;4307123;33;20471;-78
2021/04/29 13:21:02;;;;;;;;;;;10.80;73.40;;;;;;4295470;33;20428;-78
2021/04/29 13:23:32;;;;;;;;;;;10.80;73.40;;;;;;4305580;33;31778;-77
2021/04/29 13:26:11;;;;;;;;;;;10.80;73.40;;;;;;4281512;33;20412;-78
2021/04/29 13:28:44;;;;;;;;;;;10.80;73.20;;;;;;4280282;33;20326;-78
2021/04/29 13:31:16;;;;;;;;;;;10.80;73.20;;;;;;4280389;33;31255;-78
2021/04/29 13:33:49;;;;;;;;;;;10.90;73.10;;;;;;4292106;33;39379;-78
2021/04/29 13:36:18;;;;;;;;;;;10.80;73.00;;;;;;4292144;33;38701;-77
2021/04/29 13:38:48;;;;;;;;;;;10.80;73.10;;;;;;4306535;33;20014;-77
2021/04/29 13:41:20;;;;;;;;;;;10.90;73.10;;;;;;4292471;33;20032;-77
2021/04/29 13:43:55;;;;;;;;;;;10.90;73.00;;;;;;4293570;33;20006;-77
2021/04/29 13:46:28;;;;;;;;;;;10.90;72.90;;;;;;4292778;33;29605;-78
2021/04/29 13:48:57;;;;;;;;;;;10.90;72.90;;;;;;4305195;33;43041;-77
2021/04/29 13:51:30;;;;;;;;;;;10.80;72.80;;;;;;4292342;33;20403;-77
2021/04/29 13:54:02;;;;;;;;;;;10.90;72.80;;;;;;4292373;33;20062;-77
2021/04/29 13:56:35;;;;;;;;;;;10.80;72.80;;;;;;4291094;33;42511;-77
2021/04/29 13:59:05;;;;;;;;;;;10.90;72.90;;;;;;4303562;33;39872;-78
2021/04/29 14:01:34;;;;;;;;;;;10.90;72.80;;;;;;4291658;33;20062;-78
2021/04/29 14:04:04;;;;;;;;;;;10.90;72.70;;;;;;4293039;33;20062;-78
2021/04/29 14:06:34;;;;;;;;;;;11.00;72.70;;;;;;4292421;33;20018;-78
2021/04/29 14:09:09;;;;;;;;;;;11.00;72.60;;;;;;4304079;33;43914;-77
2021/04/29 14:11:40;;;;;;;;;;;11.00;72.70;;;;;;4307200;33;38706;-77
2021/04/29 14:14:07;;;;;;;;;;;11.00;72.60;;;;;;4308577;33;20045;-77
2021/04/29 14:16:44;;;;;;;;;;;11.00;72.50;;;;;;4308169;33;20033;-77
2021/04/29 14:19:16;;;;;;;;;;;11.00;72.60;;;;;;4294896;33;27298;-78
2021/04/29 14:21:46;;;;;;;;;;;11.00;72.30;;;;;;4294676;33;36106;-77
2021/04/29 14:24:18;;;;;;;;;;;11.00;72.20;;;;;;4307455;33;20021;-77
2021/04/29 14:26:54;;;;;;;;;;;11.00;72.20;;;;;;4308059;33;20007;-77
2021/04/29 14:29:21;;;;;;;;;;;11.00;72.30;;;;;;4293374;33;26783;-78
2021/04/29 14:31:54;;;;;;;;;;;11.00;72.30;;;;;;4291082;33;20471;-78
2021/04/29 14:34:26;;;;;;;;;;;10.90;72.20;;;;;;4291256;33;37249;-78
2021/04/29 14:36:56;;;;;;;;;;;11.00;72.20;;;;;;4279840;33;20054;-78
2021/04/29 14:39:29;;;;;;;;;;;11.00;72.10;;;;;;4305112;33;20014;-77
2021/04/29 14:42:11;;;;;;;;;;;11.00;72.10;;;;;;4291466;33;20018;-77
2021/04/29 14:44:40;;;;;;;;;;;11.00;72.00;;;;;;4279108;33;35636;-77
2021/04/29 14:47:11;;;;;;;;;;;11.00;71.90;;;;;;4290368;33;43289;-77
2021/04/29 14:49:44;;;;;;;;;;;11.00;71.80;;;;;;4278712;33;32917;-77